Time;durP1;ratioP1;P1;durP2;ratioP2;P2;SDS_P1;SDS_P2;PMS_P1;PMS_P2;Temp;Humidity;BMP_temperature;BMP_pressure;BME280_temperature;BME280_humidity;BME280_pressure;Samples;Min_cycle;Max_cycle;Signal;HPM_P1;HPM_P2
2023/01/05 00:01:08;;;;;;;0.60;0.60;;;;;;;-4.16;91.56;98423.50;4977167;28;20054;-87
2023/01/05 00:03:38;;;;;;;0.80;0.80;;;;;;;-4.18;91.49;98412.28;4977686;28;20050;-87
2023/01/05 00:06:11;;;;;;;0.60;0.60;;;;;;;-4.16;91.49;98415.59;4964753;28;20054;-88
2023/01/05 00:08:41;;;;;;;0.80;0.80;;;;;;;-4.24;91.77;98399.78;4947909;28;20050;-86
2023/01/05 00:22:29;;;;;;;0.70;0.70;;;;;;;-4.17;90.51;98404.25;4965227;28;20047;-82
2023/01/05 00:25:03;;;;;;;0.80;0.80;;;;;;;-4.15;90.52;98407.53;4968107;28;20065;-86
2023/01/05 00:27:40;;;;;;;0.90;0.90;;;;;;;-4.17;90.18;98392.88;4936467;29;20102;-83
2023/01/05 00:30:09;;;;;;;0.80;0.80;;;;;;;-4.11;89.96;98400.13;4964931;28;20604;-85
2023/01/05 00:32:36;;;;;;;0.50;0.50;;;;;;;-4.11;89.88;98396.66;4955512;28;20046;-85
2023/01/05 00:35:04;;;;;;;0.60;0.60;;;;;;;-4.08;89.98;98388.41;4955421;28;20064;-85
2023/01/05 00:37:34;;;;;;;0.60;0.60;;;;;;;-4.09;89.83;98390.22;4955117;28;20062;-86
2023/01/05 00:40:01;;;;;;;0.80;0.80;;;;;;;-4.06;89.50;98392.53;4955230;28;20058;-84
2023/01/05 00:42:28;;;;;;;0.90;0.90;;;;;;;-4.02;89.05;98385.94;4972437;28;20394;-85
2023/01/05 00:44:55;;;;;;;0.90;0.90;;;;;;;-3.99;88.59;98390.88;4972628;28;20050;-84
2023/01/05 00:47:22;;;;;;;0.70;0.70;;;;;;;-3.98;88.53;98381.16;4972525;28;20051;-86
2023/01/05 00:49:50;;;;;;;0.75;0.75;;;;;;;-3.98;88.34;98375.88;4955651;28;20151;-86
2023/01/05 00:52:20;;;;;;;0.70;0.70;;;;;;;-3.96;87.77;98384.44;4972726;28;20061;-86
2023/01/05 00:54:47;;;;;;;0.60;0.60;;;;;;;-3.94;87.72;98378.03;4937969;28;20413;-85
2023/01/05 00:57:15;;;;;;;0.70;0.70;;;;;;;-3.95;87.34;98372.91;4953837;28;20050;-85
2023/01/05 00:59:42;;;;;;;0.85;0.85;;;;;;;-4.02;87.78;98364.03;4953702;28;20105;-84
2023/01/05 01:02:09;;;;;;;0.88;0.88;;;;;;;-4.04;87.95;98361.56;4951616;29;20058;-86
2023/01/05 01:04:37;;;;;;;0.80;0.80;;;;;;;-4.01;87.98;98366.50;4935752;29;20062;-85
2023/01/05 01:07:05;;;;;;;0.60;0.60;;;;;;;-3.99;88.08;98361.06;4941742;29;20093;-86
2023/01/05 01:09:32;;;;;;;0.80;0.80;;;;;;;-3.94;88.33;98370.13;4977822;28;20245;-86
2023/01/05 01:12:00;;;;;;;0.60;0.60;;;;;;;-4.04;88.51;98361.56;4978674;28;20055;-85
2023/01/05 01:14:27;;;;;;;0.70;0.70;;;;;;;-4.05;89.10;98359.09;4978158;28;20050;-86
2023/01/05 01:16:54;;;;;;;0.70;0.70;;;;;;;-4.10;88.94;98356.13;4979026;28;20051;-85
2023/01/05 01:19:23;;;;;;;0.82;0.82;;;;;;;-4.07;89.42;98351.38;4978419;28;20051;-85
2023/01/05 01:21:51;;;;;;;0.80;0.80;;;;;;;-4.09;89.37;98347.25;4960508;28;20113;-85
2023/01/05 01:24:21;;;;;;;0.82;0.82;;;;;;;-4.11;89.71;98355.31;4978075;28;20107;-85
2023/01/05 01:26:48;;;;;;;0.90;0.90;;;;;;;-4.05;90.01;98357.28;4960843;28;20050;-85
2023/01/05 01:29:18;;;;;;;0.70;0.70;;;;;;;-4.07;90.03;98351.38;4961374;28;20046;-85
2023/01/05 01:31:50;;;;;;;0.80;0.80;;;;;;;-4.02;89.87;98356.13;4978425;28;20059;-86
2023/01/05 01:34:17;;;;;;;0.70;0.70;;;;;;;-4.04;90.29;98352.84;4978276;28;20061;-85
2023/01/05 01:36:45;;;;;;;0.90;0.90;;;;;;;-4.06;90.29;98349.53;4961512;28;20481;-86
2023/01/05 01:39:13;;;;;;;0.90;0.90;;;;;;;-4.10;90.63;98341.16;4978129;28;20055;-85
2023/01/05 01:41:45;;;;;;;0.80;0.80;;;;;;;-4.11;90.98;98359.75;4960928;28;20054;-85
2023/01/05 01:44:46;;;;;;;0.70;0.70;;;;;;;-4.12;91.32;98348.41;4961009;28;20422;-86
2023/01/05 01:47:36;;;;;;;0.82;0.82;;;;;;;-4.16;91.52;98353.16;4961257;28;20046;-85
2023/01/05 01:50:13;;;;;;;0.52;0.52;;;;;;;-4.15;91.71;98343.47;4969415;28;20074;-83
2023/01/05 01:52:42;;;;;;;0.98;0.98;;;;;;;-4.16;91.99;98347.09;4989087;28;20097;-85
2023/01/05 01:55:09;;;;;;;0.80;0.80;;;;;;;-4.15;92.13;98354.84;4961718;28;20536;-85
2023/01/05 01:57:37;;;;;;;0.70;0.70;;;;;;;-4.23;92.00;98340.81;4944762;28;20171;-85
2023/01/05 02:00:07;;;;;;;0.77;0.77;;;;;;;-4.19;92.31;98350.88;4948542;28;20050;-85
2023/01/05 02:02:46;;;;;;;0.80;0.80;;;;;;;-4.19;92.67;98342.97;4979919;28;20097;-84
2023/01/05 02:05:17;;;;;;;0.63;0.63;;;;;;;-4.19;92.67;98334.25;4945127;28;20058;-84
2023/01/05 02:07:46;;;;;;;0.70;0.70;;;;;;;-4.20;93.03;98330.78;4944777;28;20062;-85
2023/01/05 02:10:16;;;;;;;0.77;0.77;;;;;;;-4.16;93.08;98337.34;4977421;28;20054;-85
2023/01/05 02:13:16;;;;;;;0.60;0.60;;;;;;;-4.19;93.27;98335.06;4954725;28;20101;-82
2023/01/05 02:16:07;;;;;;;0.80;0.80;;;;;;;-4.17;93.82;98334.91;4921140;29;20421;-83
2023/01/05 02:18:59;;;;;;;0.70;0.70;;;;;;;-4.15;94.05;98330.28;4936901;29;20047;-84
2023/01/05 02:22:03;;;;;;;0.80;0.80;;;;;;;-4.14;94.03;98322.22;4955294;29;20093;-83
2023/01/05 02:24:42;;;;;;;0.70;0.70;;;;;;;-4.12;94.19;98323.88;4941352;29;20561;-83
2023/01/05 02:27:34;;;;;;;0.80;0.80;;;;;;;-4.11;94.06;98315.78;4956205;29;20051;-84
2023/01/05 02:30:19;;;;;;;0.60;0.60;;;;;;;-4.09;93.93;98316.44;4934720;29;20056;-83
2023/01/05 02:32:55;;;;;;;;;;;;;;;-4.11;94.11;98310.50;4948678;29;20145;-83
2023/01/05 02:35:50;;;;;;;0.80;0.80;;;;;;;-4.15;93.97;98312.66;4937824;29;19933;-84
2023/01/05 02:38:24;;;;;;;0.73;0.73;;;;;;;-4.12;93.99;98308.88;4906459;29;20448;-84
2023/01/05 02:40:56;;;;;;;0.60;0.60;;;;;;;-4.11;94.28;98313.13;4938322;29;20082;-83
2023/01/05 02:43:24;;;;;;;0.80;0.80;;;;;;;-4.10;94.23;98292.88;4906579;29;20043;-84
2023/01/05 02:45:51;;;;;;;0.80;0.80;;;;;;;-4.04;94.32;98303.56;4938350;29;20055;-83
2023/01/05 02:48:18;;;;;;;0.70;0.70;;;;;;;-4.02;94.32;98306.06;4954647;29;20069;-83
2023/01/05 02:50:47;;;;;;;0.80;0.80;;;;;;;-3.99;94.31;98306.53;4954926;29;20043;-84
2023/01/05 02:53:21;;;;;;;0.70;0.70;;;;;;;-4.07;94.05;98288.09;4937938;29;20426;-83
2023/01/05 02:55:53;;;;;;;0.80;0.80;;;;;;;-4.04;94.20;98298.31;4922101;29;20051;-82
2023/01/05 02:58:30;;;;;;;0.73;0.73;;;;;;;-4.04;93.52;98295.66;4905756;29;20086;-84
2023/01/05 03:01:16;;;;;;;0.90;0.90;;;;;;;-4.04;93.24;98294.84;4922308;29;20387;-82
2023/01/05 03:04:07;;;;;;;0.80;0.80;;;;;;;-4.04;93.06;98293.03;4937518;29;20055;-84
2023/01/05 03:07:00;;;;;;;0.70;0.70;;;;;;;-4.05;93.51;98286.13;4921413;29;20105;-83
2023/01/05 03:09:35;;;;;;;0.60;0.60;;;;;;;-4.06;93.52;98292.38;4921901;29;20063;-83
2023/01/05 03:15:20;;;;;;;0.90;0.90;;;;;;;-4.12;94.12;98292.25;4924045;29;20102;-84
2023/01/05 03:17:51;;;;;;;0.77;0.77;;;;;;;-4.17;94.08;98277.75;4937216;29;20047;-84
2023/01/05 03:20:23;;;;;;;0.70;0.70;;;;;;;-4.18;94.08;98280.53;4937570;29;20055;-85
2023/01/05 03:37:26;;;;;;;0.70;0.70;;;;;;;-4.42;91.70;98260.34;4937057;29;20061;-84
2023/01/05 03:39:53;;;;;;;0.68;0.68;;;;;;;-4.47;91.29;98260.03;4923812;29;20912;-84
2023/01/05 03:42:21;;;;;;;0.70;0.70;;;;;;;-4.52;91.11;98263.16;4955844;29;20087;-85
2023/01/05 03:44:49;;;;;;;0.70;0.70;;;;;;;-4.52;91.24;98262.34;4937624;29;20051;-84
2023/01/05 03:47:17;;;;;;;0.73;0.73;;;;;;;-4.49;91.62;98270.72;4939154;29;20510;-83
2023/01/05 03:49:45;;;;;;;0.90;0.90;;;;;;;-4.45;91.70;98268.59;4922350;29;20054;-84
2023/01/05 03:52:13;;;;;;;0.80;0.80;;;;;;;-4.51;91.84;98264.78;4937872;29;20058;-83
2023/01/05 03:54:41;;;;;;;0.60;0.60;;;;;;;-4.49;92.03;98262.81;4937108;29;20138;-83
2023/01/05 03:57:08;;;;;;;0.80;0.80;;;;;;;-4.47;92.45;98260.84;4936537;29;20070;-84
2023/01/05 03:59:37;;;;;;;0.80;0.80;;;;;;;-4.45;92.54;98260.69;4936110;29;20051;-84
2023/01/05 04:02:04;;;;;;;0.80;0.80;;;;;;;-4.50;93.15;98257.72;4936377;29;20077;-84
2023/01/05 04:04:32;;;;;;;0.68;0.68;;;;;;;-4.56;92.57;98264.47;4936159;29;20043;-83
2023/01/05 04:07:02;;;;;;;0.80;0.80;;;;;;;-4.77;92.01;98264.16;4936064;29;20135;-83
2023/01/05 04:09:32;;;;;;;0.80;0.80;;;;;;;-4.89;92.06;98268.91;4935963;29;20070;-84
2023/01/05 04:12:00;;;;;;;0.70;0.70;;;;;;;-4.96;92.18;98276.66;4936361;29;20574;-84
2023/01/05 04:14:31;;;;;;;0.80;0.80;;;;;;;-4.97;92.34;98267.09;4936447;29;20047;-83
2023/01/05 04:16:59;;;;;;;0.80;0.80;;;;;;;-4.91;92.39;98263.84;4936886;29;20047;-83
2023/01/05 04:19:26;;;;;;;0.60;0.60;;;;;;;-4.94;92.10;98258.88;4940557;29;20146;-85
2023/01/05 04:21:55;;;;;;;0.70;0.70;;;;;;;-5.00;92.00;98256.91;4940501;29;20050;-84
2023/01/05 04:24:23;;;;;;;0.80;0.80;;;;;;;-5.06;91.72;98260.22;4936599;29;20051;-84
2023/01/05 04:26:50;;;;;;;0.60;0.60;;;;;;;-5.24;91.13;98255.91;4935869;29;20051;-84
2023/01/05 04:29:22;;;;;;;0.60;0.60;;;;;;;-5.39;91.29;98254.06;4920399;29;20043;-82
2023/01/05 04:31:50;;;;;;;0.60;0.60;;;;;;;-5.40;91.33;98258.50;4936019;29;20059;-84
2023/01/05 04:34:17;;;;;;;0.65;0.65;;;;;;;-5.43;90.76;98258.00;4935603;29;20430;-82
2023/01/05 04:36:46;;;;;;;0.60;0.60;;;;;;;-5.39;90.91;98259.31;4953038;29;20129;-84
2023/01/05 04:39:16;;;;;;;0.80;0.80;;;;;;;-5.38;90.93;98248.63;4953033;29;20055;-84
2023/01/05 04:41:43;;;;;;;0.70;0.70;;;;;;;-5.33;91.20;98256.88;4935142;29;20051;-84
2023/01/05 04:44:14;;;;;;;0.80;0.80;;;;;;;-5.35;90.91;98250.13;4920158;29;20047;-84
2023/01/05 04:46:42;;;;;;;0.80;0.80;;;;;;;-5.45;90.58;98239.75;4917859;29;20058;-83
2023/01/05 04:49:11;;;;;;;0.60;0.60;;;;;;;-5.45;90.80;98239.75;4919544;29;20047;-83
2023/01/05 04:51:39;;;;;;;0.65;0.65;;;;;;;-5.40;90.69;98257.69;4927519;29;20125;-84
2023/01/05 04:54:08;;;;;;;0.70;0.70;;;;;;;-5.37;90.42;98246.84;4930018;29;20055;-84
2023/01/05 04:56:35;;;;;;;0.80;0.80;;;;;;;-5.41;90.35;98246.34;4941700;29;20055;-84
2023/01/05 04:59:05;;;;;;;0.73;0.73;;;;;;;-5.39;90.38;98239.13;4932730;29;20113;-84
2023/01/05 05:01:34;;;;;;;0.80;0.80;;;;;;;-5.37;90.77;98252.91;4925002;29;20055;-86
2023/01/05 05:04:03;;;;;;;0.77;0.77;;;;;;;-5.37;90.34;98245.00;4930054;29;20058;-84
2023/01/05 05:06:30;;;;;;;0.80;0.80;;;;;;;-5.40;89.53;98247.97;4916066;29;20475;-85
2023/01/05 05:08:58;;;;;;;0.70;0.70;;;;;;;-5.43;89.74;98242.22;4916706;29;20048;-83
2023/01/05 05:11:28;;;;;;;0.70;0.70;;;;;;;-5.39;89.63;98238.28;4916526;29;20048;-87
2023/01/05 05:14:01;;;;;;;0.70;0.70;;;;;;;-5.33;89.93;98240.28;4938026;29;20142;-87
2023/01/05 05:16:28;;;;;;;0.65;0.65;;;;;;;-5.31;89.65;98243.56;4922144;29;20051;-86
2023/01/05 05:18:56;;;;;;;0.63;0.63;;;;;;;-5.29;89.57;98238.94;4938386;29;20052;-85
2023/01/05 05:21:29;;;;;;;0.90;0.90;;;;;;;-5.27;89.72;98236.97;4943326;29;20126;-87
2023/01/05 05:23:56;;;;;;;0.63;0.63;;;;;;;-5.23;89.49;98233.88;4919817;29;20120;-86
2023/01/05 05:26:23;;;;;;;0.80;0.80;;;;;;;-5.25;88.61;98235.84;4927529;29;20492;-82
2023/01/05 05:28:50;;;;;;;0.60;0.60;;;;;;;-5.38;88.61;98214.44;4936963;29;20067;-87
2023/01/05 05:31:18;;;;;;;0.70;0.70;;;;;;;-5.34;87.96;98221.03;4954478;28;20059;-92
2023/01/05 05:33:49;;;;;;;0.80;0.80;;;;;;;-5.30;88.28;98229.41;4937048;29;20066;-87
2023/01/05 05:36:18;;;;;;;0.70;0.70;;;;;;;-5.27;88.44;98229.09;4941202;29;20154;-85
2023/01/05 05:38:46;;;;;;;0.70;0.70;;;;;;;-5.18;88.44;98235.19;4605528;28;10000078;-85
2023/01/05 05:41:14;;;;;;;0.60;0.60;;;;;;;-5.29;87.93;98224.00;4929849;29;20083;-84
2023/01/05 05:43:42;;;;;;;0.70;0.70;;;;;;;-5.32;88.07;98218.22;4943642;29;20126;-90
2023/01/05 05:46:13;;;;;;;0.77;0.77;;;;;;;-5.35;88.39;98222.00;4919132;29;20081;-89
2023/01/05 05:48:40;;;;;;;0.75;0.75;;;;;;;-5.36;88.04;98216.94;4936639;29;20063;-88
2023/01/05 05:51:07;;;;;;;0.57;0.57;;;;;;;-5.35;88.44;98206.22;4957289;28;20062;-89
2023/01/05 05:53:35;;;;;;;0.77;0.77;;;;;;;-5.29;88.51;98205.59;4929585;29;20107;-84
2023/01/05 05:56:02;;;;;;;0.70;0.70;;;;;;;-5.24;89.06;98210.38;4954243;28;20138;-84
2023/01/05 05:58:29;;;;;;;0.60;0.60;;;;;;;-5.27;89.00;98210.69;4936227;29;20047;-88
2023/01/05 06:01:00;;;;;;;0.70;0.70;;;;;;;-5.21;89.08;98210.03;4941889;29;20584;-89
2023/01/05 06:03:27;;;;;;;0.68;0.68;;;;;;;-5.32;89.13;98202.44;4932803;29;20396;-83
2023/01/05 06:05:56;;;;;;;0.63;0.63;;;;;;;-5.32;89.56;98203.28;4934701;29;20051;-83
2023/01/05 06:08:23;;;;;;;0.90;0.90;;;;;;;-5.23;89.38;98223.34;4944224;29;20051;-82
2023/01/05 06:10:50;;;;;;;0.70;0.70;;;;;;;-5.26;89.61;98223.69;4927005;29;20043;-84
2023/01/05 06:13:17;;;;;;;0.93;0.93;;;;;;;-5.25;89.81;98212.16;4950453;29;20581;-88
2023/01/05 06:15:48;;;;;;;0.80;0.80;;;;;;;-5.33;89.30;98199.00;4934267;29;20043;-86
2023/01/05 06:18:17;;;;;;;0.60;0.60;;;;;;;-5.24;89.36;98210.38;4934262;29;20054;-85
2023/01/05 06:20:45;;;;;;;0.70;0.70;;;;;;;-5.33;89.33;98200.81;4951439;29;20051;-85
2023/01/05 06:23:12;;;;;;;0.73;0.73;;;;;;;-5.27;89.49;98210.69;4951442;29;20726;-87
2023/01/05 06:25:39;;;;;;;0.70;0.70;;;;;;;-5.25;89.35;98201.63;4943054;29;20059;-86
2023/01/05 06:28:06;;;;;;;0.63;0.63;;;;;;;-5.18;89.12;98208.88;4951763;29;20079;-86
2023/01/05 06:30:34;;;;;;;0.70;0.70;;;;;;;-5.13;88.93;98210.03;4961452;28;20046;-89
2023/01/05 06:33:02;;;;;;;0.60;0.60;;;;;;;-5.20;88.61;98205.59;4970148;28;20058;-86
2023/01/05 06:35:28;;;;;;;0.90;0.90;;;;;;;-5.26;88.32;98201.81;4970283;28;20540;-85
2023/01/05 06:37:55;;;;;;;0.80;0.80;;;;;;;-5.24;88.15;98205.13;4970276;28;20142;-86
2023/01/05 06:40:23;;;;;;;0.85;0.85;;;;;;;-5.29;87.85;98204.75;4970255;28;20047;-82
2023/01/05 06:42:50;;;;;;;1.00;1.00;;;;;;;-5.39;87.58;98194.41;4964690;28;20651;-88
2023/01/05 06:45:20;;;;;;;0.90;0.90;;;;;;;-5.36;87.82;98199.34;4951720;29;20897;-86
2023/01/05 06:47:47;;;;;;;0.60;0.60;;;;;;;-5.45;87.16;98180.06;4957698;28;20047;-86
2023/01/05 06:50:14;;;;;;;0.70;0.70;;;;;;;-5.28;87.68;98199.34;4970723;28;20055;-85
2023/01/05 06:52:41;;;;;;;0.80;0.80;;;;;;;-5.29;87.77;98197.69;4952575;28;20502;-86
2023/01/05 06:55:11;;;;;;;0.73;0.73;;;;;;;-5.27;87.33;98198.34;4950971;29;20051;-85
2023/01/05 06:57:39;;;;;;;0.90;0.90;;;;;;;-5.37;87.18;98187.16;4950537;29;20047;-84
2023/01/05 07:00:09;;;;;;;0.70;0.70;;;;;;;-5.40;87.13;98178.78;4950223;29;20102;-85
2023/01/05 07:02:36;;;;;;;0.80;0.80;;;;;;;-5.31;87.44;98199.66;4933749;29;20151;-85
2023/01/05 07:05:04;;;;;;;0.77;0.77;;;;;;;-5.32;87.74;98182.22;4950580;28;20550;-84
2023/01/05 07:07:32;;;;;;;0.70;0.70;;;;;;;-5.23;87.88;98190.97;4933939;28;20058;-86
2023/01/05 07:09:59;;;;;;;0.73;0.73;;;;;;;-5.15;88.05;98200.66;4933936;29;20533;-85
2023/01/05 07:12:26;;;;;;;0.70;0.70;;;;;;;-5.12;87.98;98181.91;4950138;29;20051;-86
2023/01/05 07:14:53;;;;;;;0.70;0.70;;;;;;;-5.16;87.72;98177.97;4933657;29;20063;-85
2023/01/05 07:17:24;;;;;;;0.80;0.80;;;;;;;-5.25;87.74;98172.69;4950301;29;20059;-85
2023/01/05 07:19:53;;;;;;;1.00;1.00;;;;;;;-5.09;87.50;98186.84;4951626;29;20529;-87
2023/01/05 07:22:20;;;;;;;0.73;0.73;;;;;;;-5.04;87.52;98197.69;4950875;29;20058;-86
2023/01/05 07:24:47;;;;;;;0.70;0.70;;;;;;;-5.04;87.23;98181.91;4950831;29;20079;-85
2023/01/05 07:27:15;;;;;;;0.90;0.90;;;;;;;-4.91;87.30;98191.94;4950528;29;20043;-85
2023/01/05 07:29:42;;;;;;;0.85;0.85;;;;;;;-4.86;86.12;98195.72;4950030;29;20545;-85
2023/01/05 07:32:09;;;;;;;0.80;0.80;;;;;;;-4.81;85.74;98188.16;4951020;29;20518;-86
2023/01/05 07:34:40;;;;;;;0.77;0.77;;;;;;;-4.86;85.55;98189.63;4917567;29;20054;-88
2023/01/05 07:37:07;;;;;;;0.75;0.75;;;;;;;-4.90;85.27;98177.78;4950230;29;20138;-88
2023/01/05 07:39:34;;;;;;;0.80;0.80;;;;;;;-4.87;85.21;98180.91;4935076;29;20055;-87
2023/01/05 07:42:01;;;;;;;0.70;0.70;;;;;;;-4.85;85.22;98172.84;4934091;29;20086;-85
2023/01/05 07:44:30;;;;;;;0.85;0.85;;;;;;;-4.75;85.12;98188.47;4933564;29;20134;-86
2023/01/05 07:46:57;;;;;;;0.80;0.80;;;;;;;-4.79;84.82;98186.16;4933439;29;20142;-85
2023/01/05 07:49:29;;;;;;;0.88;0.88;;;;;;;-4.75;84.81;98183.22;4934084;29;20078;-84
2023/01/05 07:51:59;;;;;;;0.60;0.60;;;;;;;-4.69;84.82;98182.53;4934697;29;20102;-84
2023/01/05 07:54:26;;;;;;;0.90;0.90;;;;;;;-4.56;84.13;98188.09;4950446;29;20130;-84
2023/01/05 07:56:56;;;;;;;0.70;0.70;;;;;;;-4.56;83.46;98190.72;4934647;29;20502;-86
2023/01/05 07:59:25;;;;;;;0.68;0.68;;;;;;;-4.46;83.33;98185.28;4950446;29;20074;-85
2023/01/05 08:01:52;;;;;;;0.80;0.80;;;;;;;-4.40;83.10;98187.25;4934185;29;20078;-85
2023/01/05 08:04:19;;;;;;;0.90;0.90;;;;;;;-4.43;83.28;98180.50;4934285;29;20139;-86
2023/01/05 08:06:47;;;;;;;0.80;0.80;;;;;;;-4.36;82.95;98181.44;4935200;29;20047;-85
2023/01/05 08:12:08;;;;;;;0.68;0.68;;;;;;;-4.20;82.38;98179.78;4938579;29;20134;-86
2023/01/05 08:14:36;;;;;;;0.90;0.90;;;;;;;-4.16;82.25;98178.44;4948989;28;20059;-83
2023/01/05 08:17:05;;;;;;;0.88;0.88;;;;;;;-4.16;82.49;98175.78;4935913;29;20051;-83
2023/01/05 08:19:34;;;;;;;0.73;0.73;;;;;;;-3.98;82.26;98171.09;4933937;29;20043;-81
2023/01/05 08:22:02;;;;;;;1.00;1.00;;;;;;;-3.81;82.02;98171.03;4949614;29;20062;-83
2023/01/05 08:24:30;;;;;;;0.80;0.80;;;;;;;-3.79;81.95;98169.03;4915864;29;20580;-83
2023/01/05 08:26:57;;;;;;;0.77;0.77;;;;;;;-3.75;81.86;98162.41;4932063;29;20267;-84
2023/01/05 08:29:24;;;;;;;0.80;0.80;;;;;;;-3.85;81.75;98164.44;4886162;28;1339042;-84
2023/01/05 08:31:51;;;;;;;0.90;0.90;;;;;;;-3.96;81.35;98161.19;4954406;29;20058;-89
2023/01/05 08:34:20;;;;;;;0.93;0.93;;;;;;;-4.18;80.94;98148.78;4919771;29;20548;-86
2023/01/05 08:36:47;;;;;;;0.70;0.70;;;;;;;-4.15;81.18;98161.63;4934833;29;20051;-86
2023/01/05 08:39:18;;;;;;;0.75;0.75;;;;;;;-4.40;81.35;98155.63;4919175;29;20052;-87
2023/01/05 08:41:47;;;;;;;0.82;0.82;;;;;;;-4.34;81.82;98159.41;4959102;29;20082;-87
2023/01/05 08:44:15;;;;;;;0.90;0.90;;;;;;;-4.44;82.05;98147.25;4940936;29;20047;-90
2023/01/05 08:46:56;;;;;;;0.80;0.80;;;;;;;-4.46;82.46;98151.03;4937080;29;20058;-88
2023/01/05 08:49:23;;;;;;;0.85;0.85;;;;;;;-4.49;82.42;98141.66;4953705;29;20206;-87
2023/01/05 08:51:50;;;;;;;0.60;0.60;;;;;;;-4.51;82.48;98135.72;4930963;29;20510;-86
2023/01/05 08:54:18;;;;;;;1.00;1.00;;;;;;;-4.52;82.53;98136.72;4949449;29;20063;-85
2023/01/05 08:56:47;;;;;;;0.80;0.80;;;;;;;-4.48;82.25;98142.47;4950556;29;20049;-84
2023/01/05 08:59:14;;;;;;;0.75;0.75;;;;;;;-4.47;82.53;98136.22;4951895;29;20147;-86
2023/01/05 09:01:43;;;;;;;0.80;0.80;;;;;;;-4.48;82.10;98129.31;4938602;29;20054;-87
2023/01/05 09:04:11;;;;;;;0.68;0.68;;;;;;;-4.42;82.31;98132.09;4934281;29;20051;-85
2023/01/05 09:06:38;;;;;;;1.00;1.00;;;;;;;-4.45;82.39;98124.53;4940683;29;20151;-83
2023/01/05 09:09:11;;;;;;;0.90;0.90;;;;;;;-4.52;82.29;98117.47;4942763;29;20047;-86
2023/01/05 09:11:39;;;;;;;0.93;0.93;;;;;;;-4.53;82.33;98113.19;4921731;29;20549;-88
2023/01/05 09:14:06;;;;;;;0.85;0.85;;;;;;;-4.69;82.25;98088.56;4933960;29;20573;-86
2023/01/05 09:16:36;;;;;;;0.70;0.70;;;;;;;-4.68;82.21;98100.75;4949653;29;20082;-84
2023/01/05 09:19:23;;;;;;;0.90;0.90;;;;;;;-4.76;82.16;98100.78;4950598;29;20035;-87
2023/01/05 09:21:51;;;;;;;0.98;0.98;;;;;;;-4.79;81.75;98103.72;4937410;29;20137;-87
2023/01/05 09:24:18;;;;;;;0.80;0.80;;;;;;;-4.70;81.81;98107.19;4921824;29;20053;-88
2023/01/05 09:26:46;;;;;;;0.68;0.68;;;;;;;-4.70;81.86;98108.00;4952815;28;20055;-85
2023/01/05 09:29:13;;;;;;;0.90;0.90;;;;;;;-4.68;81.58;98097.31;4940600;29;20049;-86
2023/01/05 09:31:40;;;;;;;0.80;0.80;;;;;;;-4.58;81.72;98104.00;4955755;28;20058;-88
2023/01/05 09:34:08;;;;;;;0.80;0.80;;;;;;;-4.55;81.38;98100.22;4960113;28;20505;-86
2023/01/05 09:36:37;;;;;;;1.05;1.05;;;;;;;-4.53;81.39;98095.59;4974839;28;20061;-87
2023/01/05 09:39:05;;;;;;;0.70;0.70;;;;;;;-4.50;81.21;98091.81;4961404;28;20057;-87
2023/01/05 09:41:46;;;;;;;0.70;0.70;;;;;;;-4.50;81.58;98097.06;4954760;28;20070;-87
2023/01/05 09:44:32;;;;;;;0.88;0.88;;;;;;;-4.44;80.95;98102.47;4944367;29;20075;-86
2023/01/05 09:47:30;;;;;;;0.70;0.70;;;;;;;-4.46;80.60;98103.63;4938286;29;20059;-87
2023/01/05 09:49:58;;;;;;;0.98;0.98;;;;;;;-4.56;80.84;98103.81;4935507;29;20051;-87
2023/01/05 09:52:26;;;;;;;0.73;0.73;;;;;;;-4.62;80.84;98091.34;4935268;29;20490;-84
2023/01/05 09:54:56;;;;;;;0.95;0.95;;;;;;;-4.62;80.88;98088.72;4953540;29;20422;-87
2023/01/05 09:57:26;;;;;;;0.60;0.60;;;;;;;-4.65;80.93;98089.06;4953042;29;20086;-86
2023/01/05 09:59:59;;;;;;;0.68;0.68;;;;;;;-4.71;80.85;98080.03;4936808;29;20051;-86
2023/01/05 10:02:42;;;;;;;0.70;0.70;;;;;;;-4.72;81.07;98083.63;4938681;29;20106;-85
2023/01/05 10:05:12;;;;;;;0.90;0.90;;;;;;;-4.72;81.42;98078.38;4958657;29;20293;-87
2023/01/05 10:07:49;;;;;;;0.70;0.70;;;;;;;-4.83;81.33;98065.59;4905906;29;20516;-87
2023/01/05 10:10:42;;;;;;;0.70;0.70;;;;;;;-4.74;81.42;98080.34;4936184;29;20051;-86
2023/01/05 10:13:30;;;;;;;0.77;0.77;;;;;;;-4.86;81.49;98079.91;4953734;29;20062;-85
2023/01/05 10:15:57;;;;;;;0.80;0.80;;;;;;;-4.85;81.86;98083.34;4953186;29;20062;-87
2023/01/05 10:18:27;;;;;;;0.70;0.70;;;;;;;-4.81;81.78;98079.38;4954183;29;20051;-85
2023/01/05 10:21:14;;;;;;;1.00;1.00;;;;;;;-4.76;81.58;98073.63;4953193;29;20047;-88
2023/01/05 10:23:50;;;;;;;0.85;0.85;;;;;;;-4.76;81.61;98073.63;4935388;29;20059;-84
2023/01/05 10:26:27;;;;;;;1.10;1.10;;;;;;;-4.88;81.51;98054.75;4938165;29;20047;-85
2023/01/05 10:29:14;;;;;;;0.63;0.63;;;;;;;-4.84;81.44;98059.47;4937137;29;20055;-87
2023/01/05 10:31:54;;;;;;;0.70;0.70;;;;;;;-4.84;81.53;98064.75;4939782;29;20110;-89
2023/01/05 10:34:43;;;;;;;0.90;0.90;;;;;;;-4.91;81.26;98053.28;4936933;29;20217;-83
2023/01/05 10:37:22;;;;;;;0.60;0.60;;;;;;;-4.92;81.11;98062.16;4911467;28;20141;-89
2023/01/05 10:40:03;;;;;;;0.70;0.70;;;;;;;-5.03;81.13;98054.63;4923686;28;20046;-83
2023/01/05 10:42:48;;;;;;;0.80;0.80;;;;;;;-5.02;81.21;98061.50;4953677;28;20247;-86
2023/01/05 10:45:18;;;;;;;0.77;0.77;;;;;;;-4.96;81.39;98066.13;4954384;28;20101;-83
2023/01/05 10:47:47;;;;;;;0.70;0.70;;;;;;;-4.97;81.21;98058.38;4938423;28;20567;-85
2023/01/05 10:50:37;;;;;;;0.60;0.60;;;;;;;-4.94;81.04;98065.94;4956732;28;20057;-84
2023/01/05 10:53:08;;;;;;;0.85;0.85;;;;;;;-4.98;80.89;98062.84;4934220;29;20090;-84
2023/01/05 10:56:04;;;;;;;0.90;0.90;;;;;;;-5.04;81.15;98059.06;4951694;29;20055;-85
2023/01/05 10:58:34;;;;;;;0.80;0.80;;;;;;;-5.03;80.80;98059.88;4951871;29;20126;-87
2023/01/05 11:01:15;;;;;;;0.68;0.68;;;;;;;-5.05;80.73;98056.59;4935129;29;20574;-86
2023/01/05 11:03:46;;;;;;;0.80;0.80;;;;;;;-5.05;80.71;98061.84;4935310;29;20055;-86
2023/01/05 11:06:34;;;;;;;0.90;0.90;;;;;;;-5.13;80.34;98059.25;4934591;29;20122;-86
2023/01/05 11:09:22;;;;;;;0.70;0.70;;;;;;;-5.24;80.40;98058.63;4936161;29;20085;-86
2023/01/05 11:11:54;;;;;;;0.77;0.77;;;;;;;-5.36;80.59;98059.94;4938466;29;20142;-86
2023/01/05 11:14:21;;;;;;;0.60;0.60;;;;;;;-5.45;80.64;98060.94;4937817;29;20055;-86
2023/01/05 11:16:51;;;;;;;0.80;0.80;;;;;;;-5.52;80.66;98055.53;4922502;29;20059;-86
2023/01/05 11:19:30;;;;;;;0.60;0.60;;;;;;;-5.55;81.16;98061.09;4960767;28;20412;-86
2023/01/05 11:21:58;;;;;;;0.68;0.68;;;;;;;-5.62;80.99;98061.91;4976840;28;20109;-86
2023/01/05 11:24:31;;;;;;;0.80;0.80;;;;;;;-5.73;80.78;98063.88;4993240;28;20144;-85
2023/01/05 11:27:21;;;;;;;0.80;0.80;;;;;;;-5.78;80.91;98063.56;4992986;28;20046;-85
2023/01/05 11:30:17;;;;;;;0.52;0.52;;;;;;;-5.81;80.65;98056.00;4993203;28;20054;-86
2023/01/05 11:32:45;;;;;;;0.63;0.63;;;;;;;-5.94;80.40;98053.91;4976378;28;20065;-85
2023/01/05 11:35:24;;;;;;;0.95;0.95;;;;;;;-5.89;80.23;98063.91;4976314;28;20076;-86
2023/01/05 11:38:00;;;;;;;0.82;0.82;;;;;;;-5.83;80.47;98060.59;4981306;28;20073;-86
2023/01/05 11:40:32;;;;;;;0.75;0.75;;;;;;;-5.82;80.15;98058.78;4960852;28;20413;-86
2023/01/05 11:43:08;;;;;;;0.80;0.80;;;;;;;-5.93;79.86;98047.63;4975665;28;20109;-85
2023/01/05 11:45:51;;;;;;;0.98;0.98;;;;;;;-5.86;79.76;98053.06;4960304;28;20073;-85
2023/01/05 11:48:22;;;;;;;0.90;0.90;;;;;;;-5.95;79.69;98065.41;4976416;28;20069;-85
2023/01/05 11:50:52;;;;;;;0.82;0.82;;;;;;;-5.95;79.47;98065.41;4992441;28;20055;-86
2023/01/05 11:53:24;;;;;;;0.70;0.70;;;;;;;-5.96;79.55;98057.69;4993519;28;20465;-85
2023/01/05 11:56:06;;;;;;;0.77;0.77;;;;;;;-5.97;79.36;98066.56;4992548;28;20145;-86
2023/01/05 11:58:44;;;;;;;0.70;0.70;;;;;;;-6.06;79.14;98057.81;4975885;28;20050;-84
2023/01/05 12:01:50;;;;;;;0.90;0.90;;;;;;;-6.07;79.61;98058.00;4993205;28;20062;-86
2023/01/05 12:04:42;;;;;;;0.90;0.90;;;;;;;-6.09;79.47;98059.97;4896547;29;20049;-85
2023/01/05 12:07:34;;;;;;;0.80;0.80;;;;;;;-6.19;79.39;98055.66;4881283;29;20057;-86
2023/01/05 12:10:29;;;;;;;0.80;0.80;;;;;;;-6.31;79.29;98049.06;4896195;29;20053;-86
2023/01/05 12:13:21;;;;;;;0.70;0.70;;;;;;;-6.29;79.50;98060.25;4897196;29;20063;-86
2023/01/05 12:16:13;;;;;;;0.60;0.60;;;;;;;-6.30;79.62;98061.25;4897311;29;20147;-85
2023/01/05 12:19:05;;;;;;;0.80;0.80;;;;;;;-6.34;79.59;98059.91;4898019;29;20052;-86
2023/01/05 12:21:45;;;;;;;0.93;0.93;;;;;;;-6.44;79.51;98060.03;4896527;29;20151;-85
2023/01/05 12:24:25;;;;;;;1.00;1.00;;;;;;;-6.49;79.95;98056.25;4879620;29;20053;-85
2023/01/05 12:27:31;;;;;;;0.70;0.70;;;;;;;-6.62;79.94;98046.19;4879892;29;20449;-86
2023/01/05 12:30:27;;;;;;;0.80;0.80;;;;;;;-6.52;80.22;98069.69;4899890;29;20071;-85